sensor_id;sensor_type;location;lat;lon;timestamp;P1;durP1;ratioP1;P2;durP2;ratioP2
78116;SDS011;67887;59.082;37.928;2023-03-14T00:02:10;3.55;;;1.10;;
78116;SDS011;67887;59.082;37.928;2023-03-14T00:04:36;3.55;;;1.13;;
78116;SDS011;67887;59.082;37.928;2023-03-14T00:07:02;3.50;;;1.15;;
78116;SDS011;67887;59.082;37.928;2023-03-14T00:09:29;3.90;;;1.20;;
78116;SDS011;67887;59.082;37.928;2023-03-14T00:11:56;3.33;;;1.10;;
78116;SDS011;67887;59.082;37.928;2023-03-14T00:14:22;3.80;;;1.13;;
78116;SDS011;67887;59.082;37.928;2023-03-14T00:16:49;3.25;;;1.00;;
78116;SDS011;67887;59.082;37.928;2023-03-14T00:19:15;3.58;;;1.20;;
78116;SDS011;67887;59.082;37.928;2023-03-14T00:21:44;3.88;;;1.10;;
78116;SDS011;67887;59.082;37.928;2023-03-14T00:24:10;3.42;;;1.20;;
78116;SDS011;67887;59.082;37.928;2023-03-14T00:26:36;2.72;;;1.00;;
78116;SDS011;67887;59.082;37.928;2023-03-14T00:29:03;3.50;;;1.17;;
78116;SDS011;67887;59.082;37.928;2023-03-14T00:31:29;2.55;;;0.90;;
78116;SDS011;67887;59.082;37.928;2023-03-14T00:33:55;3.15;;;1.00;;
78116;SDS011;67887;59.082;37.928;2023-03-14T00:36:24;3.00;;;0.95;;
78116;SDS011;67887;59.082;37.928;2023-03-14T00:38:50;2.85;;;0.90;;
78116;SDS011;67887;59.082;37.928;2023-03-14T00:41:18;3.42;;;1.10;;
78116;SDS011;67887;59.082;37.928;2023-03-14T00:43:48;3.88;;;1.00;;
78116;SDS011;67887;59.082;37.928;2023-03-14T00:46:15;4.25;;;1.10;;
78116;SDS011;67887;59.082;37.928;2023-03-14T00:48:44;3.60;;;1.20;;
78116;SDS011;67887;59.082;37.928;2023-03-14T00:51:11;4.30;;;1.40;;
78116;SDS011;67887;59.082;37.928;2023-03-14T00:53:43;3.40;;;1.27;;
78116;SDS011;67887;59.082;37.928;2023-03-14T00:56:10;3.70;;;1.10;;
78116;SDS011;67887;59.082;37.928;2023-03-14T00:58:38;4.40;;;1.45;;
78116;SDS011;67887;59.082;37.928;2023-03-14T01:01:09;3.67;;;1.20;;
78116;SDS011;67887;59.082;37.928;2023-03-14T01:03:40;3.38;;;1.17;;
78116;SDS011;67887;59.082;37.928;2023-03-14T01:06:07;3.38;;;1.02;;
78116;SDS011;67887;59.082;37.928;2023-03-14T01:08:38;3.60;;;1.30;;
78116;SDS011;67887;59.082;37.928;2023-03-14T01:11:05;3.85;;;1.30;;
78116;SDS011;67887;59.082;37.928;2023-03-14T01:13:36;3.83;;;1.20;;
78116;SDS011;67887;59.082;37.928;2023-03-14T01:16:03;3.78;;;1.20;;
78116;SDS011;67887;59.082;37.928;2023-03-14T01:18:31;3.30;;;1.10;;
78116;SDS011;67887;59.082;37.928;2023-03-14T01:20:57;3.83;;;1.33;;
78116;SDS011;67887;59.082;37.928;2023-03-14T01:23:23;3.55;;;1.20;;
78116;SDS011;67887;59.082;37.928;2023-03-14T01:25:49;3.17;;;1.13;;
78116;SDS011;67887;59.082;37.928;2023-03-14T01:28:16;3.33;;;1.10;;
78116;SDS011;67887;59.082;37.928;2023-03-14T01:30:43;3.15;;;1.02;;
78116;SDS011;67887;59.082;37.928;2023-03-14T01:33:09;3.97;;;1.10;;
78116;SDS011;67887;59.082;37.928;2023-03-14T01:35:37;2.90;;;0.98;;
78116;SDS011;67887;59.082;37.928;2023-03-14T01:38:03;3.40;;;1.05;;
78116;SDS011;67887;59.082;37.928;2023-03-14T01:40:30;2.85;;;0.98;;
78116;SDS011;67887;59.082;37.928;2023-03-14T01:42:56;3.50;;;1.05;;
78116;SDS011;67887;59.082;37.928;2023-03-14T01:48:28;3.53;;;1.00;;
78116;SDS011;67887;59.082;37.928;2023-03-14T01:51:00;3.05;;;1.00;;
78116;SDS011;67887;59.082;37.928;2023-03-14T01:53:27;2.65;;;0.82;;
78116;SDS011;67887;59.082;37.928;2023-03-14T01:55:55;3.55;;;1.23;;
78116;SDS011;67887;59.082;37.928;2023-03-14T01:58:24;3.42;;;1.00;;
78116;SDS011;67887;59.082;37.928;2023-03-14T02:00:54;3.63;;;1.10;;
78116;SDS011;67887;59.082;37.928;2023-03-14T02:03:23;3.28;;;1.00;;
78116;SDS011;67887;59.082;37.928;2023-03-14T02:05:52;3.15;;;1.00;;
78116;SDS011;67887;59.082;37.928;2023-03-14T02:08:22;3.50;;;1.05;;
78116;SDS011;67887;59.082;37.928;2023-03-14T02:10:57;3.30;;;0.93;;
78116;SDS011;67887;59.082;37.928;2023-03-14T02:13:36;3.30;;;1.00;;
78116;SDS011;67887;59.082;37.928;2023-03-14T02:16:21;2.97;;;0.98;;
78116;SDS011;67887;59.082;37.928;2023-03-14T02:18:47;3.60;;;1.00;;
78116;SDS011;67887;59.082;37.928;2023-03-14T02:21:51;2.67;;;0.90;;
78116;SDS011;67887;59.082;37.928;2023-03-14T02:27:17;3.00;;;1.00;;
78116;SDS011;67887;59.082;37.928;2023-03-14T02:32:22;3.67;;;1.10;;
78116;SDS011;67887;59.082;37.928;2023-03-14T02:34:54;3.53;;;1.20;;
78116;SDS011;67887;59.082;37.928;2023-03-14T02:37:24;2.63;;;0.90;;
78116;SDS011;67887;59.082;37.928;2023-03-14T02:39:58;4.10;;;1.08;;
78116;SDS011;67887;59.082;37.928;2023-03-14T02:42:25;3.08;;;1.10;;
78116;SDS011;67887;59.082;37.928;2023-03-14T02:47:36;3.17;;;1.17;;
78116;SDS011;67887;59.082;37.928;2023-03-14T02:50:09;2.97;;;1.00;;
78116;SDS011;67887;59.082;37.928;2023-03-14T02:52:38;2.97;;;1.10;;
78116;SDS011;67887;59.082;37.928;2023-03-14T02:55:04;3.55;;;1.20;;
78116;SDS011;67887;59.082;37.928;2023-03-14T02:57:32;3.35;;;1.20;;
78116;SDS011;67887;59.082;37.928;2023-03-14T02:59:58;4.75;;;1.35;;
78116;SDS011;67887;59.082;37.928;2023-03-14T03:02:29;3.60;;;1.30;;
78116;SDS011;67887;59.082;37.928;2023-03-14T03:04:55;3.20;;;1.10;;
78116;SDS011;67887;59.082;37.928;2023-03-14T03:07:21;4.95;;;1.40;;
78116;SDS011;67887;59.082;37.928;2023-03-14T03:09:48;3.60;;;1.10;;
78116;SDS011;67887;59.082;37.928;2023-03-14T03:12:14;3.67;;;1.20;;
78116;SDS011;67887;59.082;37.928;2023-03-14T03:14:40;3.42;;;1.20;;
78116;SDS011;67887;59.082;37.928;2023-03-14T03:17:07;4.38;;;1.30;;
78116;SDS011;67887;59.082;37.928;2023-03-14T03:19:34;4.28;;;1.17;;
78116;SDS011;67887;59.082;37.928;2023-03-14T03:22:00;5.35;;;1.35;;
78116;SDS011;67887;59.082;37.928;2023-03-14T03:24:27;3.60;;;1.20;;
78116;SDS011;67887;59.082;37.928;2023-03-14T03:26:54;3.83;;;1.42;;
78116;SDS011;67887;59.082;37.928;2023-03-14T03:29:20;3.35;;;1.20;;
78116;SDS011;67887;59.082;37.928;2023-03-14T03:31:46;3.33;;;1.10;;
78116;SDS011;67887;59.082;37.928;2023-03-14T03:34:13;4.15;;;1.40;;
78116;SDS011;67887;59.082;37.928;2023-03-14T03:36:41;3.20;;;1.10;;
78116;SDS011;67887;59.082;37.928;2023-03-14T03:39:07;4.88;;;1.13;;
78116;SDS011;67887;59.082;37.928;2023-03-14T03:41:33;3.10;;;1.05;;
78116;SDS011;67887;59.082;37.928;2023-03-14T03:44:00;3.30;;;1.02;;
78116;SDS011;67887;59.082;37.928;2023-03-14T03:46:26;4.30;;;1.23;;
78116;SDS011;67887;59.082;37.928;2023-03-14T03:48:56;3.28;;;1.30;;
78116;SDS011;67887;59.082;37.928;2023-03-14T03:51:25;3.13;;;1.10;;
78116;SDS011;67887;59.082;37.928;2023-03-14T03:53:51;3.75;;;1.25;;
78116;SDS011;67887;59.082;37.928;2023-03-14T03:56:24;3.45;;;1.10;;
78116;SDS011;67887;59.082;37.928;2023-03-14T03:58:50;3.60;;;1.10;;
78116;SDS011;67887;59.082;37.928;2023-03-14T04:01:16;4.28;;;1.40;;
78116;SDS011;67887;59.082;37.928;2023-03-14T04:03:46;3.97;;;1.35;;
78116;SDS011;67887;59.082;37.928;2023-03-14T04:06:12;3.63;;;1.30;;
78116;SDS011;67887;59.082;37.928;2023-03-14T04:08:42;3.65;;;1.20;;
78116;SDS011;67887;59.082;37.928;2023-03-14T04:11:15;3.25;;;1.17;;
78116;SDS011;67887;59.082;37.928;2023-03-14T04:14:08;3.45;;;1.20;;
78116;SDS011;67887;59.082;37.928;2023-03-14T04:16:34;3.70;;;1.27;;
78116;SDS011;67887;59.082;37.928;2023-03-14T04:19:08;3.13;;;0.93;;
78116;SDS011;67887;59.082;37.928;2023-03-14T04:21:35;5.53;;;1.40;;
78116;SDS011;67887;59.082;37.928;2023-03-14T04:24:01;3.20;;;1.08;;
78116;SDS011;67887;59.082;37.928;2023-03-14T04:28:58;3.45;;;1.00;;
78116;SDS011;67887;59.082;37.928;2023-03-14T04:31:24;4.15;;;1.35;;
78116;SDS011;67887;59.082;37.928;2023-03-14T04:33:51;3.63;;;1.20;;
78116;SDS011;67887;59.082;37.928;2023-03-14T04:36:23;4.53;;;1.20;;
78116;SDS011;67887;59.082;37.928;2023-03-14T04:38:49;4.03;;;1.15;;
78116;SDS011;67887;59.082;37.928;2023-03-14T04:41:19;3.75;;;1.20;;
78116;SDS011;67887;59.082;37.928;2023-03-14T04:43:45;3.35;;;1.15;;
78116;SDS011;67887;59.082;37.928;2023-03-14T04:46:12;7.13;;;1.20;;
78116;SDS011;67887;59.082;37.928;2023-03-14T04:48:38;3.60;;;1.17;;
78116;SDS011;67887;59.082;37.928;2023-03-14T04:51:06;3.63;;;1.30;;
78116;SDS011;67887;59.082;37.928;2023-03-14T04:53:33;4.28;;;1.40;;
78116;SDS011;67887;59.082;37.928;2023-03-14T04:56:03;4.25;;;1.42;;
78116;SDS011;67887;59.082;37.928;2023-03-14T04:58:36;3.67;;;1.20;;
78116;SDS011;67887;59.082;37.928;2023-03-14T05:01:04;3.30;;;1.20;;
78116;SDS011;67887;59.082;37.928;2023-03-14T05:03:51;4.30;;;1.20;;
78116;SDS011;67887;59.082;37.928;2023-03-14T05:06:43;4.03;;;1.40;;
78116;SDS011;67887;59.082;37.928;2023-03-14T05:09:33;4.15;;;1.50;;
78116;SDS011;67887;59.082;37.928;2023-03-14T05:12:17;3.80;;;1.35;;
78116;SDS011;67887;59.082;37.928;2023-03-14T05:15:07;3.97;;;1.40;;
78116;SDS011;67887;59.082;37.928;2023-03-14T05:17:56;4.30;;;1.38;;
78116;SDS011;67887;59.082;37.928;2023-03-14T05:20:55;4.45;;;1.55;;
78116;SDS011;67887;59.082;37.928;2023-03-14T05:23:35;4.80;;;1.60;;
78116;SDS011;67887;59.082;37.928;2023-03-14T05:26:21;4.50;;;1.77;;
78116;SDS011;67887;59.082;37.928;2023-03-14T05:28:57;4.35;;;1.70;;
78116;SDS011;67887;59.082;37.928;2023-03-14T05:31:58;6.03;;;2.22;;
78116;SDS011;67887;59.082;37.928;2023-03-14T05:34:56;4.63;;;1.60;;
78116;SDS011;67887;59.082;37.928;2023-03-14T05:37:50;4.63;;;1.70;;
78116;SDS011;67887;59.082;37.928;2023-03-14T05:40:27;5.00;;;1.55;;
78116;SDS011;67887;59.082;37.928;2023-03-14T05:43:05;4.68;;;1.65;;
78116;SDS011;67887;59.082;37.928;2023-03-14T05:46:09;5.05;;;1.80;;
78116;SDS011;67887;59.082;37.928;2023-03-14T05:48:43;4.95;;;2.10;;
78116;SDS011;67887;59.082;37.928;2023-03-14T05:51:26;5.18;;;1.90;;
78116;SDS011;67887;59.082;37.928;2023-03-14T05:53:55;5.00;;;1.88;;
78116;SDS011;67887;59.082;37.928;2023-03-14T05:56:30;4.32;;;1.73;;
78116;SDS011;67887;59.082;37.928;2023-03-14T05:59:16;4.78;;;1.90;;
78116;SDS011;67887;59.082;37.928;2023-03-14T06:02:02;5.22;;;1.98;;
78116;SDS011;67887;59.082;37.928;2023-03-14T06:04:36;5.40;;;2.00;;
78116;SDS011;67887;59.082;37.928;2023-03-14T06:07:02;6.28;;;2.20;;
78116;SDS011;67887;59.082;37.928;2023-03-14T06:09:30;5.30;;;2.03;;
78116;SDS011;67887;59.082;37.928;2023-03-14T06:11:59;6.03;;;1.95;;
78116;SDS011;67887;59.082;37.928;2023-03-14T06:14:26;8.82;;;2.30;;
78116;SDS011;67887;59.082;37.928;2023-03-14T06:16:52;5.82;;;2.25;;
78116;SDS011;67887;59.082;37.928;2023-03-14T06:19:20;5.13;;;2.10;;
78116;SDS011;67887;59.082;37.928;2023-03-14T06:21:47;5.53;;;2.22;;
78116;SDS011;67887;59.082;37.928;2023-03-14T06:24:13;5.10;;;2.25;;
78116;SDS011;67887;59.082;37.928;2023-03-14T06:26:43;6.85;;;2.67;;
78116;SDS011;67887;59.082;37.928;2023-03-14T06:29:10;5.20;;;2.38;;
78116;SDS011;67887;59.082;37.928;2023-03-14T06:31:37;6.28;;;2.38;;
78116;SDS011;67887;59.082;37.928;2023-03-14T06:34:05;5.85;;;2.38;;
78116;SDS011;67887;59.082;37.928;2023-03-14T06:36:35;6.82;;;2.60;;
78116;SDS011;67887;59.082;37.928;2023-03-14T06:39:02;5.65;;;2.60;;
78116;SDS011;67887;59.082;37.928;2023-03-14T06:41:30;5.97;;;2.50;;
78116;SDS011;67887;59.082;37.928;2023-03-14T06:43:58;6.00;;;2.58;;
78116;SDS011;67887;59.082;37.928;2023-03-14T06:46:25;6.50;;;2.50;;
78116;SDS011;67887;59.082;37.928;2023-03-14T06:48:52;6.90;;;2.72;;
78116;SDS011;67887;59.082;37.928;2023-03-14T06:51:19;5.50;;;2.53;;
78116;SDS011;67887;59.082;37.928;2023-03-14T06:53:45;8.25;;;3.00;;
78116;SDS011;67887;59.082;37.928;2023-03-14T06:56:14;7.20;;;2.85;;
78116;SDS011;67887;59.082;37.928;2023-03-14T06:58:41;6.57;;;3.00;;
78116;SDS011;67887;59.082;37.928;2023-03-14T07:01:16;6.40;;;2.72;;
78116;SDS011;67887;59.082;37.928;2023-03-14T07:03:46;6.80;;;2.80;;
78116;SDS011;67887;59.082;37.928;2023-03-14T07:06:12;6.10;;;3.00;;
78116;SDS011;67887;59.082;37.928;2023-03-14T07:08:39;7.82;;;3.25;;
78116;SDS011;67887;59.082;37.928;2023-03-14T07:11:05;6.75;;;3.30;;
78116;SDS011;67887;59.082;37.928;2023-03-14T07:13:33;6.20;;;2.80;;
78116;SDS011;67887;59.082;37.928;2023-03-14T07:16:04;6.30;;;2.88;;
78116;SDS011;67887;59.082;37.928;2023-03-14T07:18:30;6.70;;;3.17;;
78116;SDS011;67887;59.082;37.928;2023-03-14T07:20:56;6.68;;;2.88;;
78116;SDS011;67887;59.082;37.928;2023-03-14T07:23:23;6.32;;;2.88;;
78116;SDS011;67887;59.082;37.928;2023-03-14T07:25:52;5.93;;;2.53;;
78116;SDS011;67887;59.082;37.928;2023-03-14T07:28:20;7.13;;;2.75;;
78116;SDS011;67887;59.082;37.928;2023-03-14T07:30:51;7.32;;;2.83;;
78116;SDS011;67887;59.082;37.928;2023-03-14T07:33:23;6.60;;;2.80;;
78116;SDS011;67887;59.082;37.928;2023-03-14T07:35:49;7.28;;;3.30;;
78116;SDS011;67887;59.082;37.928;2023-03-14T07:38:16;6.07;;;2.90;;
78116;SDS011;67887;59.082;37.928;2023-03-14T07:41:03;6.70;;;2.90;;
78116;SDS011;67887;59.082;37.928;2023-03-14T07:43:33;6.28;;;2.72;;
78116;SDS011;67887;59.082;37.928;2023-03-14T07:46:00;7.22;;;3.08;;
78116;SDS011;67887;59.082;37.928;2023-03-14T07:48:27;7.85;;;3.00;;
78116;SDS011;67887;59.082;37.928;2023-03-14T07:50:54;7.88;;;3.30;;
78116;SDS011;67887;59.082;37.928;2023-03-14T07:53:21;5.93;;;2.75;;
78116;SDS011;67887;59.082;37.928;2023-03-14T07:55:50;7.05;;;3.17;;
78116;SDS011;67887;59.082;37.928;2023-03-14T07:58:22;6.47;;;2.90;;
78116;SDS011;67887;59.082;37.928;2023-03-14T08:00:48;5.90;;;3.08;;
78116;SDS011;67887;59.082;37.928;2023-03-14T08:03:17;7.18;;;3.08;;
78116;SDS011;67887;59.082;37.928;2023-03-14T08:05:44;6.28;;;2.60;;
78116;SDS011;67887;59.082;37.928;2023-03-14T08:08:13;8.13;;;3.13;;
78116;SDS011;67887;59.082;37.928;2023-03-14T08:10:43;5.85;;;2.83;;
78116;SDS011;67887;59.082;37.928;2023-03-14T08:13:10;5.15;;;2.70;;
78116;SDS011;67887;59.082;37.928;2023-03-14T08:15:36;5.75;;;2.80;;
78116;SDS011;67887;59.082;37.928;2023-03-14T08:18:03;5.68;;;2.70;;
78116;SDS011;67887;59.082;37.928;2023-03-14T08:20:30;5.95;;;2.80;;
78116;SDS011;67887;59.082;37.928;2023-03-14T08:22:57;6.57;;;2.65;;
78116;SDS011;67887;59.082;37.928;2023-03-14T08:25:25;6.32;;;2.85;;
78116;SDS011;67887;59.082;37.928;2023-03-14T08:27:52;6.53;;;2.42;;
78116;SDS011;67887;59.082;37.928;2023-03-14T08:30:19;5.10;;;2.72;;
78116;SDS011;67887;59.082;37.928;2023-03-14T08:32:46;5.30;;;2.60;;
78116;SDS011;67887;59.082;37.928;2023-03-14T08:35:14;5.63;;;2.70;;
78116;SDS011;67887;59.082;37.928;2023-03-14T08:37:40;5.15;;;2.65;;
78116;SDS011;67887;59.082;37.928;2023-03-14T08:40:08;5.78;;;2.65;;
78116;SDS011;67887;59.082;37.928;2023-03-14T08:42:36;6.10;;;2.80;;
78116;SDS011;67887;59.082;37.928;2023-03-14T08:45:14;5.55;;;2.60;;
78116;SDS011;67887;59.082;37.928;2023-03-14T08:47:43;6.18;;;2.72;;
78116;SDS011;67887;59.082;37.928;2023-03-14T08:50:11;6.80;;;2.85;;
78116;SDS011;67887;59.082;37.928;2023-03-14T08:52:38;5.60;;;2.75;;
78116;SDS011;67887;59.082;37.928;2023-03-14T08:55:06;5.90;;;2.83;;
78116;SDS011;67887;59.082;37.928;2023-03-14T08:57:34;6.47;;;2.83;;
78116;SDS011;67887;59.082;37.928;2023-03-14T09:00:05;5.72;;;2.75;;
78116;SDS011;67887;59.082;37.928;2023-03-14T09:02:38;6.40;;;3.13;;
78116;SDS011;67887;59.082;37.928;2023-03-14T09:05:05;6.40;;;2.92;;
78116;SDS011;67887;59.082;37.928;2023-03-14T09:07:31;5.65;;;2.70;;
78116;SDS011;67887;59.082;37.928;2023-03-14T09:09:58;5.35;;;2.60;;
78116;SDS011;67887;59.082;37.928;2023-03-14T09:12:24;6.53;;;2.92;;
78116;SDS011;67887;59.082;37.928;2023-03-14T09:14:50;7.03;;;3.03;;
78116;SDS011;67887;59.082;37.928;2023-03-14T09:17:16;7.15;;;3.05;;
78116;SDS011;67887;59.082;37.928;2023-03-14T09:19:43;6.38;;;3.03;;
78116;SDS011;67887;59.082;37.928;2023-03-14T09:22:09;5.50;;;2.83;;
78116;SDS011;67887;59.082;37.928;2023-03-14T09:24:35;6.75;;;3.10;;
78116;SDS011;67887;59.082;37.928;2023-03-14T09:27:02;5.82;;;2.97;;
78116;SDS011;67887;59.082;37.928;2023-03-14T09:29:28;6.13;;;3.08;;
78116;SDS011;67887;59.082;37.928;2023-03-14T09:31:54;6.03;;;3.03;;
78116;SDS011;67887;59.082;37.928;2023-03-14T09:34:21;6.43;;;3.03;;
78116;SDS011;67887;59.082;37.928;2023-03-14T09:36:47;6.97;;;3.40;;
78116;SDS011;67887;59.082;37.928;2023-03-14T09:39:13;7.07;;;3.47;;
78116;SDS011;67887;59.082;37.928;2023-03-14T09:41:46;7.05;;;3.35;;
78116;SDS011;67887;59.082;37.928;2023-03-14T09:44:34;6.57;;;3.38;;
78116;SDS011;67887;59.082;37.928;2023-03-14T09:47:06;6.63;;;3.70;;
78116;SDS011;67887;59.082;37.928;2023-03-14T09:49:39;7.13;;;3.45;;
78116;SDS011;67887;59.082;37.928;2023-03-14T09:52:10;7.55;;;3.60;;
78116;SDS011;67887;59.082;37.928;2023-03-14T09:57:21;6.60;;;3.47;;
78116;SDS011;67887;59.082;37.928;2023-03-14T09:59:54;6.97;;;3.53;;
78116;SDS011;67887;59.082;37.928;2023-03-14T10:02:25;6.75;;;3.40;;
78116;SDS011;67887;59.082;37.928;2023-03-14T10:04:57;7.10;;;3.40;;
78116;SDS011;67887;59.082;37.928;2023-03-14T10:07:30;7.72;;;3.75;;
78116;SDS011;67887;59.082;37.928;2023-03-14T10:09:58;7.75;;;3.60;;
78116;SDS011;67887;59.082;37.928;2023-03-14T10:12:37;8.13;;;4.03;;
78116;SDS011;67887;59.082;37.928;2023-03-14T10:15:06;7.78;;;3.38;;
78116;SDS011;67887;59.082;37.928;2023-03-14T10:17:49;8.60;;;3.90;;
78116;SDS011;67887;59.082;37.928;2023-03-14T10:25:42;7.07;;;3.47;;
78116;SDS011;67887;59.082;37.928;2023-03-14T10:30:56;7.28;;;3.72;;
78116;SDS011;67887;59.082;37.928;2023-03-14T10:33:29;7.22;;;3.65;;
78116;SDS011;67887;59.082;37.928;2023-03-14T10:38:49;7.70;;;3.67;;
78116;SDS011;67887;59.082;37.928;2023-03-14T10:41:23;7.82;;;4.18;;
78116;SDS011;67887;59.082;37.928;2023-03-14T10:43:57;7.05;;;3.75;;
78116;SDS011;67887;59.082;37.928;2023-03-14T10:46:26;7.18;;;3.90;;
78116;SDS011;67887;59.082;37.928;2023-03-14T10:49:23;7.28;;;3.85;;
78116;SDS011;67887;59.082;37.928;2023-03-14T10:51:53;7.43;;;3.95;;
78116;SDS011;67887;59.082;37.928;2023-03-14T10:54:21;7.53;;;3.88;;
78116;SDS011;67887;59.082;37.928;2023-03-14T10:56:59;7.97;;;4.25;;
78116;SDS011;67887;59.082;37.928;2023-03-14T10:59:35;7.07;;;3.67;;
78116;SDS011;67887;59.082;37.928;2023-03-14T11:07:56;8.23;;;4.05;;
78116;SDS011;67887;59.082;37.928;2023-03-14T11:18:48;10.23;;;4.40;;
78116;SDS011;67887;59.082;37.928;2023-03-14T11:27:18;8.82;;;4.20;;
78116;SDS011;67887;59.082;37.928;2023-03-14T11:32:40;10.07;;;4.15;;
78116;SDS011;67887;59.082;37.928;2023-03-14T11:35:30;8.60;;;4.20;;
78116;SDS011;67887;59.082;37.928;2023-03-14T11:41:16;8.27;;;4.07;;
78116;SDS011;67887;59.082;37.928;2023-03-14T11:43:56;7.18;;;3.88;;
78116;SDS011;67887;59.082;37.928;2023-03-14T11:46:28;7.82;;;3.90;;
78116;SDS011;67887;59.082;37.928;2023-03-14T11:51:38;8.88;;;4.28;;
78116;SDS011;67887;59.082;37.928;2023-03-14T11:57:01;9.02;;;4.45;;
78116;SDS011;67887;59.082;37.928;2023-03-14T11:59:38;7.68;;;4.28;;
78116;SDS011;67887;59.082;37.928;2023-03-14T12:05:21;7.95;;;4.40;;
78116;SDS011;67887;59.082;37.928;2023-03-14T12:10:39;8.30;;;4.40;;
78116;SDS011;67887;59.082;37.928;2023-03-14T12:13:08;9.43;;;4.70;;
78116;SDS011;67887;59.082;37.928;2023-03-14T12:15:40;7.95;;;4.38;;
78116;SDS011;67887;59.082;37.928;2023-03-14T12:18:35;9.57;;;4.40;;
78116;SDS011;67887;59.082;37.928;2023-03-14T12:21:09;7.40;;;4.15;;
78116;SDS011;67887;59.082;37.928;2023-03-14T12:26:23;8.90;;;4.47;;
78116;SDS011;67887;59.082;37.928;2023-03-14T12:51:00;7.32;;;3.58;;
78116;SDS011;67887;59.082;37.928;2023-03-14T12:56:36;8.65;;;4.20;;
78116;SDS011;67887;59.082;37.928;2023-03-14T12:59:32;8.02;;;3.75;;
78116;SDS011;67887;59.082;37.928;2023-03-14T13:12:29;8.10;;;4.20;;
78116;SDS011;67887;59.082;37.928;2023-03-14T13:15:02;7.72;;;4.13;;
78116;SDS011;67887;59.082;37.928;2023-03-14T13:17:39;8.25;;;4.13;;
78116;SDS011;67887;59.082;37.928;2023-03-14T13:20:20;7.30;;;3.92;;
78116;SDS011;67887;59.082;37.928;2023-03-14T13:22:50;7.97;;;3.60;;
78116;SDS011;67887;59.082;37.928;2023-03-14T13:25:16;7.93;;;3.80;;
78116;SDS011;67887;59.082;37.928;2023-03-14T13:27:44;7.22;;;3.40;;
78116;SDS011;67887;59.082;37.928;2023-03-14T13:30:21;7.57;;;4.00;;
78116;SDS011;67887;59.082;37.928;2023-03-14T13:33:03;7.80;;;4.30;;
78116;SDS011;67887;59.082;37.928;2023-03-14T13:35:37;7.80;;;3.92;;
78116;SDS011;67887;59.082;37.928;2023-03-14T13:38:13;8.00;;;3.70;;
78116;SDS011;67887;59.082;37.928;2023-03-14T13:40:49;7.60;;;3.90;;
78116;SDS011;67887;59.082;37.928;2023-03-14T13:43:24;8.02;;;4.25;;
78116;SDS011;67887;59.082;37.928;2023-03-14T13:45:52;7.57;;;4.05;;
78116;SDS011;67887;59.082;37.928;2023-03-14T13:48:22;7.63;;;3.80;;
78116;SDS011;67887;59.082;37.928;2023-03-14T13:50:53;7.47;;;4.03;;
78116;SDS011;67887;59.082;37.928;2023-03-14T13:53:24;8.52;;;4.40;;
78116;SDS011;67887;59.082;37.928;2023-03-14T13:55:51;8.10;;;3.97;;
78116;SDS011;67887;59.082;37.928;2023-03-14T13:58:25;7.80;;;4.00;;
78116;SDS011;67887;59.082;37.928;2023-03-14T14:01:02;7.55;;;4.10;;
78116;SDS011;67887;59.082;37.928;2023-03-14T14:03:34;8.00;;;4.10;;
78116;SDS011;67887;59.082;37.928;2023-03-14T14:06:05;7.47;;;4.10;;
78116;SDS011;67887;59.082;37.928;2023-03-14T14:08:45;7.90;;;3.92;;
78116;SDS011;67887;59.082;37.928;2023-03-14T14:11:16;8.38;;;4.30;;
78116;SDS011;67887;59.082;37.928;2023-03-14T14:13:48;8.30;;;4.40;;
78116;SDS011;67887;59.082;37.928;2023-03-14T14:16:16;7.68;;;4.25;;
78116;SDS011;67887;59.082;37.928;2023-03-14T14:18:50;9.20;;;4.93;;
78116;SDS011;67887;59.082;37.928;2023-03-14T14:21:17;9.48;;;4.70;;
78116;SDS011;67887;59.082;37.928;2023-03-14T14:23:44;9.63;;;4.60;;
78116;SDS011;67887;59.082;37.928;2023-03-14T14:26:14;8.98;;;4.53;;
78116;SDS011;67887;59.082;37.928;2023-03-14T14:28:43;8.68;;;4.53;;
78116;SDS011;67887;59.082;37.928;2023-03-14T14:31:20;7.85;;;4.22;;
78116;SDS011;67887;59.082;37.928;2023-03-14T14:36:25;8.93;;;4.72;;
78116;SDS011;67887;59.082;37.928;2023-03-14T14:38:54;7.97;;;4.57;;
78116;SDS011;67887;59.082;37.928;2023-03-14T14:41:33;8.73;;;4.80;;
78116;SDS011;67887;59.082;37.928;2023-03-14T14:44:05;9.48;;;4.90;;
78116;SDS011;67887;59.082;37.928;2023-03-14T14:46:35;8.77;;;4.55;;
78116;SDS011;67887;59.082;37.928;2023-03-14T14:51:33;8.63;;;4.38;;
78116;SDS011;67887;59.082;37.928;2023-03-14T14:54:10;9.20;;;5.20;;
78116;SDS011;67887;59.082;37.928;2023-03-14T14:56:40;9.70;;;4.78;;
78116;SDS011;67887;59.082;37.928;2023-03-14T14:59:26;10.20;;;4.88;;
78116;SDS011;67887;59.082;37.928;2023-03-14T15:01:59;10.60;;;4.95;;
78116;SDS011;67887;59.082;37.928;2023-03-14T15:04:31;8.63;;;4.68;;
78116;SDS011;67887;59.082;37.928;2023-03-14T15:06:57;9.85;;;5.20;;
78116;SDS011;67887;59.082;37.928;2023-03-14T15:09:24;8.70;;;4.72;;
78116;SDS011;67887;59.082;37.928;2023-03-14T15:11:50;9.35;;;4.47;;
78116;SDS011;67887;59.082;37.928;2023-03-14T15:14:16;9.57;;;4.82;;
78116;SDS011;67887;59.082;37.928;2023-03-14T15:16:43;9.98;;;4.57;;
78116;SDS011;67887;59.082;37.928;2023-03-14T15:19:10;10.10;;;4.93;;
78116;SDS011;67887;59.082;37.928;2023-03-14T15:21:41;10.60;;;5.03;;
78116;SDS011;67887;59.082;37.928;2023-03-14T15:24:08;9.45;;;4.93;;
78116;SDS011;67887;59.082;37.928;2023-03-14T15:26:35;8.32;;;4.65;;
78116;SDS011;67887;59.082;37.928;2023-03-14T15:29:01;9.20;;;5.03;;
78116;SDS011;67887;59.082;37.928;2023-03-14T15:31:27;9.75;;;4.68;;
78116;SDS011;67887;59.082;37.928;2023-03-14T15:33:55;10.32;;;5.30;;
78116;SDS011;67887;59.082;37.928;2023-03-14T15:36:26;8.98;;;5.03;;
78116;SDS011;67887;59.082;37.928;2023-03-14T15:38:56;9.88;;;4.75;;
78116;SDS011;67887;59.082;37.928;2023-03-14T15:41:24;8.68;;;4.70;;
78116;SDS011;67887;59.082;37.928;2023-03-14T15:43:52;9.70;;;4.78;;
78116;SDS011;67887;59.082;37.928;2023-03-14T15:46:18;8.57;;;4.38;;
78116;SDS011;67887;59.082;37.928;2023-03-14T15:48:45;9.80;;;4.82;;
78116;SDS011;67887;59.082;37.928;2023-03-14T15:51:12;8.82;;;4.80;;
78116;SDS011;67887;59.082;37.928;2023-03-14T15:53:39;9.48;;;4.40;;
78116;SDS011;67887;59.082;37.928;2023-03-14T15:56:06;9.60;;;4.68;;
78116;SDS011;67887;59.082;37.928;2023-03-14T15:58:36;9.50;;;5.13;;
78116;SDS011;67887;59.082;37.928;2023-03-14T16:01:06;8.80;;;4.68;;
78116;SDS011;67887;59.082;37.928;2023-03-14T16:03:38;9.55;;;4.80;;
78116;SDS011;67887;59.082;37.928;2023-03-14T16:06:05;8.73;;;5.03;;
78116;SDS011;67887;59.082;37.928;2023-03-14T16:08:31;10.57;;;5.10;;
78116;SDS011;67887;59.082;37.928;2023-03-14T16:10:58;9.07;;;5.00;;
78116;SDS011;67887;59.082;37.928;2023-03-14T16:13:25;9.75;;;5.18;;
78116;SDS011;67887;59.082;37.928;2023-03-14T16:15:56;9.13;;;5.03;;
78116;SDS011;67887;59.082;37.928;2023-03-14T16:18:24;11.20;;;5.80;;
78116;SDS011;67887;59.082;37.928;2023-03-14T16:21:00;9.13;;;4.78;;
78116;SDS011;67887;59.082;37.928;2023-03-14T16:23:28;8.98;;;4.60;;
78116;SDS011;67887;59.082;37.928;2023-03-14T16:25:55;9.70;;;4.07;;
78116;SDS011;67887;59.082;37.928;2023-03-14T16:28:24;9.50;;;4.75;;
78116;SDS011;67887;59.082;37.928;2023-03-14T16:30:51;9.82;;;4.80;;
78116;SDS011;67887;59.082;37.928;2023-03-14T16:33:17;8.57;;;4.40;;
78116;SDS011;67887;59.082;37.928;2023-03-14T16:35:54;9.90;;;4.38;;
78116;SDS011;67887;59.082;37.928;2023-03-14T16:38:22;9.77;;;4.18;;
78116;SDS011;67887;59.082;37.928;2023-03-14T16:41:00;9.60;;;4.63;;
78116;SDS011;67887;59.082;37.928;2023-03-14T16:43:35;10.25;;;4.55;;